AirNav   Everest Fuels
 
 1082 users online  

FD41 Grand Cypress Resort Heliport
Kissimmee, Florida, USA

GOING TO KISSIMMEE?


FAA INFORMATION EFFECTIVE 07 NOVEMBER 2019

Location

FAA Identifier: FD41
Lat/Long: 28-22-51.4300N 081-30-30.7500W
28-22.857167N 081-30.512500W
28.3809528,-81.5085417
(estimated)
Elevation: 105 ft. / 32 m (estimated)
Variation: 03W (1985)
From city: 8 miles NW of KISSIMMEE, FL
Time zone: UTC -5 (UTC -4 during Daylight Saving Time)
Zip code: 32836

Heliport Operations

Heliport use: Private use. Permission required prior to landing
Activation date: 10/1985
Control tower: no
ARTCC: JACKSONVILLE CENTER
FSS: SAINT PETERSBURG FLIGHT SERVICE STATION
Attendance: UNATNDD
Wind indicator: lighted
Segmented circle: no
Lights: ACTVT PERIMETER LGTS - 123.05.

Heliport Communications

WX AWOS-3PT at ISM (7 nm SE): 128.775 (407-847-0533)
WX ASOS at MCO (11 nm E): PHONE 407-855-5235
WX ASOS at ORL (14 nm NE): PHONE 407-658-6753

Nearby radio navigation aids

VOR radial/distance  VOR name  Freq  Var
ORLr223/13.3ORLANDO VORTAC112.2000E
LALr047/35.7LAKELAND VORTAC116.0001E

Heliport Services

Runway Information

Helipad H1

Dimensions: 20 x 20 ft. / 6 x 6 m
Surface: concrete
Runway edge lights: PERI
Operational restrictions: INGRESS/EGRESS ROUTE - 180 DEG / 360 DEG.
Latitude: 28-22.857167N
Longitude: 081-30.512500W
Elevation: 105.0 ft.
Traffic pattern: leftleft

Heliport Ownership and Management from official FAA records

Ownership: Privately-owned
Owner: GRAND CYPRESS FLORIDA, L.P.
1 N JACARANDA
ORLANDO, FL 32836
Phone 407-239-4700
Manager: JEFFERY YOST
1 N JACARANDA
ORLANDO, FL 32836
Phone (407) 239-4700
VICE PRESIDENT AND RESORT MANAGER

Additional Remarks

FOR CD CTC ORLANDO APCH AT 407-852-7553.

Instrument Procedures

There are no published instrument procedures at FD41.

Some nearby airports with instrument procedures:

KISM - Kissimmee Gateway Airport (7 nm SE)
KMCO - Orlando International Airport (11 nm E)
KORL - Executive Airport (14 nm NE)
X04 - Orlando Apopka Airport (20 nm N)
KGIF - Winter Haven Regional Airport (23 nm SW)
 
Loc | Ops | Rwys | IFR | FBO | Links
Com | Nav | Svcs | Stats | Notes


 
Area around FD41 (Grand Cypress Resort Heliport)
 
Road maps at: MapQuest Bing Google
 
Aerial photo
No photo
 
Sectional chart

 
Airport distance calculator
Flying to Grand Cypress Resort Heliport? Find the distance to fly.

From to FD41

Sunrise and sunset
Times for 20-Nov-2019
 Local
(UTC-5)
 Zulu
(UTC)
Morning civil twilight06:2811:28
Sunrise06:5311:53
Sunset17:3022:30
Evening civil twilight17:5522:55

Current date and time
Zulu (UTC)  20-Nov-2019 13:11:52
Local (UTC-5)  20-Nov-2019 08:11:52
 
METAR
KISM 
7nm SE 
201256Z 00000KT 10SM CLR 11/10 A3015 RMK AO2 SLP209 T01060100 PNO $
KMCO 
9nm E 
201253Z 29003KT 9SM FEW040 13/10 A3013 RMK AO2 SLP203 T01280100
KORL 
14nm NE 
201253Z 00000KT 10SM CLR 13/11 A3013 RMK AO2 SLP206 T01330106
TAF
KISM 
7nm SE 
201125Z 2012/2112 00000KT P6SM SKC FM201500 34007KT P6SM SKC FM210000 03004KT P6SM SKC
KMCO 
9nm E 
201125Z 2012/2118 VRB02KT P6SM SKC FM201500 33008KT P6SM SKC FM202300 03003KT P6SM SKC FM211500 06008KT P6SM SCT030
NOTAMs
Click for the latest NOTAMs
NOTAMs are issued by the DoD/FAA and will open in a separate window not controlled by AirNav.

 

 
 

Would you like to see your business listed on this page?

 If your business provides an interesting product or service to pilots, flight crews, aircraft, or users of the Grand Cypress Resort Heliport, you should consider listing it here.  To start the listing process, click on the button below
 
Add a business
 

Other Pages about Grand Cypress Resort Heliport

Update a link
 
Copyright © AirNav, LLC. All rights reserved. Privacy Policy  Contact